Savannah, Georgia
Current Conditions -  °F | °C
As of 9:58 PM on Saturday 24 Jan 2015 (Local Time) from KSVN Reporting Station
Clear Clear  
Wind Chill:   Ceiling: Unl
Heat Index:   Visibility: 10mi
Dew Point:   Wind: 7mph
Humidity: 79%   Direction: 250°WSW
Pressure: 29.94"   Gusts: NA
Location:  32.08°N, 81.09°W
Report Text: KSVN 250258Z AUTO 25006KT 10SM CLR 06/02 A2994 RMK AO2 SLP142 T00560023 52020
Loading
Personal Weather Stations






























Interactive Weather Map New forecast layout! Learn more

10-Day Weather Forecast

Advertisements
Track Severe Weather on mobile